Portada
METAR-TAF:

METAR-TAF

Aeroports :

Muskogee, Oklahoma, Estats Units d'Amèrica

latitud: 35-39-25N, longitud: 095-21-35W, altitud: 185 m

Observació

L'informe es va fer fa 58 minuts, a les 09:53 UTC
Vent calma
Temperatura 12°C
Humitat 67%
Pressió 1022 hPa
Visibilitat: 16.1 km
Cel clar

METAR: KMKO 300953Z AUTO 00000KT 10SM CLR 12/06 A3017 RMK AO2 SLP214 T01170056

Hora: 05:51 (10:51 UTC)


TAF: manca

Observacions i pronòstics meteorològics de més de 4000 aeroports (METAR i TAF).

Les estacions disponibles són els punts grocs i vermells al mapa.

Posi el ratolí al punt desitjat per veure el nom de l'estació.

Feu clic per veure les observacions i els pronòstics meteorològics.

Per canviar el mapa: feu clic els botons verds amb una creu de color negre per apropar; al botó verd amb un guió per allunyar la imatge; o en les fletxes verdes per a mapes adjacents.


METAR-TAF: